createdAt,value
2023-04-18T00:00:28.806Z,31.25
2023-04-18T00:02:55.717Z,28.83
2023-04-18T00:05:22.688Z,30.02
2023-04-18T00:07:49.439Z,29.27
2023-04-18T00:10:18.354Z,32.30
2023-04-18T00:12:47.585Z,25.98
2023-04-18T00:15:14.314Z,29.85
2023-04-18T00:17:40.988Z,28.42
2023-04-18T00:20:11.139Z,25.53
2023-04-18T00:22:42.446Z,30.80
2023-04-18T00:25:11.109Z,25.88
2023-04-18T00:27:41.455Z,26.95
2023-04-18T00:30:08.952Z,30.02
2023-04-18T00:32:35.633Z,29.48
2023-04-18T00:35:03.056Z,30.75
2023-04-18T00:37:30.174Z,29.77
2023-04-18T00:39:56.833Z,28.35
2023-04-18T00:42:25.426Z,28.98
2023-04-18T00:44:52.039Z,29.80
2023-04-18T00:47:18.676Z,28.25
2023-04-18T00:49:45.767Z,32.38
2023-04-18T00:52:12.975Z,28.10
2023-04-18T00:54:41.029Z,30.88
2023-04-18T00:57:07.894Z,26.70
2023-04-18T00:59:35.512Z,27.65
2023-04-18T01:02:05.206Z,32.00
2023-04-18T01:04:32.638Z,28.83
2023-04-18T01:07:00.176Z,30.88
2023-04-18T01:09:26.795Z,29.40
2023-04-18T01:11:53.361Z,31.33
2023-04-18T01:14:20.699Z,28.83
2023-04-18T01:16:48.428Z,32.60
2023-04-18T01:19:17.295Z,31.98
2023-04-18T01:21:43.859Z,31.53
2023-04-18T01:24:12.683Z,30.33
2023-04-18T01:26:40.932Z,30.23
2023-04-18T01:29:07.690Z,29.02
2023-04-18T01:31:38.652Z,32.90
2023-04-18T01:34:05.910Z,30.70
2023-04-18T01:36:33.138Z,32.22
2023-04-18T01:38:59.973Z,36.83
2023-04-18T01:41:29.085Z,31.33
2023-04-18T01:43:55.588Z,30.75
2023-04-18T01:46:22.150Z,36.73
2023-04-18T01:48:48.799Z,30.95
2023-04-18T01:51:15.700Z,32.13
2023-04-18T01:53:42.245Z,26.95
2023-04-18T01:56:10.112Z,30.17
2023-04-18T01:58:37.172Z,32.37
2023-04-18T02:01:04.068Z,31.50
2023-04-18T02:03:31.116Z,31.02
2023-04-18T02:05:57.787Z,34.78
2023-04-18T02:08:24.294Z,29.38
2023-04-18T02:10:50.964Z,31.70
2023-04-18T02:13:17.870Z,33.97
2023-04-18T02:15:48.762Z,29.35
2023-04-18T02:18:18.225Z,30.77
2023-04-18T02:20:45.505Z,30.80
2023-04-18T02:23:16.931Z,31.47
2023-04-18T02:25:43.537Z,36.08
2023-04-18T02:28:10.184Z,31.90
2023-04-18T02:30:36.686Z,30.58
2023-04-18T02:33:03.281Z,28.70
2023-04-18T02:35:30.850Z,31.40
2023-04-18T02:37:57.458Z,30.67
2023-04-18T02:40:23.935Z,28.70
2023-04-18T02:42:50.415Z,26.45
2023-04-18T02:45:16.959Z,27.08
2023-04-18T02:47:54.758Z,23.93
2023-04-18T02:50:22.583Z,26.67
2023-04-18T02:52:49.162Z,26.35
2023-04-18T02:55:16.133Z,31.35
2023-04-18T02:57:43.004Z,28.98
2023-04-18T03:00:10.000Z,27.63
2023-04-18T03:02:36.929Z,27.85
2023-04-18T03:05:04.133Z,27.55
2023-04-18T03:07:30.903Z,27.77
2023-04-18T03:09:57.626Z,27.90
2023-04-18T03:12:24.213Z,27.57
2023-04-18T03:14:50.820Z,29.63
2023-04-18T03:17:18.070Z,29.42
2023-04-18T03:19:46.195Z,32.58
2023-04-18T03:22:13.363Z,29.30
2023-04-18T03:24:39.863Z,31.23
2023-04-18T03:27:06.520Z,29.88
2023-04-18T03:29:33.461Z,28.90
2023-04-18T03:31:59.986Z,29.35
2023-04-18T03:34:26.478Z,29.50
2023-04-18T03:36:53.003Z,31.20
2023-04-18T03:39:19.725Z,30.80
2023-04-18T03:41:46.310Z,29.40
2023-04-18T03:44:13.051Z,30.73
2023-04-18T03:46:39.970Z,29.33
2023-04-18T03:49:06.574Z,28.80
2023-04-18T03:51:43.290Z,30.05
2023-04-18T03:54:09.864Z,28.55
2023-04-18T03:56:36.577Z,26.25
2023-04-18T03:59:03.149Z,29.10
2023-04-18T04:01:29.795Z,30.13
2023-04-18T04:03:56.496Z,27.63
2023-04-18T04:06:23.235Z,29.48
2023-04-18T04:08:49.750Z,29.92
2023-04-18T04:11:17.484Z,29.17
2023-04-18T04:13:44.291Z,28.77
2023-04-18T04:16:11.069Z,26.23
2023-04-18T04:18:37.642Z,27.67
2023-04-18T04:21:05.195Z,27.63
2023-04-18T04:23:31.735Z,27.15
2023-04-18T04:25:59.212Z,28.47
2023-04-18T04:28:26.196Z,30.88
2023-04-18T04:30:53.156Z,27.25
2023-04-18T04:33:21.182Z,27.88
2023-04-18T04:35:48.163Z,29.55
2023-04-18T04:38:15.372Z,27.87
2023-04-18T04:40:42.544Z,41.60
2023-04-18T04:43:12.744Z,35.53
2023-04-18T04:45:41.264Z,30.52
2023-04-18T04:48:08.766Z,25.30
2023-04-18T04:50:36.808Z,28.73
2023-04-18T04:53:03.605Z,26.67
2023-04-18T04:55:30.637Z,27.40
2023-04-18T04:57:57.410Z,25.70
2023-04-18T05:00:24.195Z,30.55
2023-04-18T05:02:55.662Z,28.27
2023-04-18T05:05:22.408Z,29.70
2023-04-18T05:07:48.957Z,27.48
2023-04-18T05:10:15.708Z,23.50
2023-04-18T05:12:42.334Z,26.13
2023-04-18T05:15:09.164Z,27.80
2023-04-18T05:17:35.668Z,25.05
2023-04-18T05:20:02.345Z,25.42
2023-04-18T05:22:28.947Z,26.48
2023-04-18T05:24:55.425Z,24.88
2023-04-18T05:27:22.426Z,22.00
2023-04-18T05:29:50.182Z,26.35
2023-04-18T05:32:16.977Z,24.52
2023-04-18T05:34:43.813Z,23.90
2023-04-18T05:37:10.656Z,23.90
2023-04-18T05:39:37.267Z,23.80
2023-04-18T05:42:04.073Z,22.40
2023-04-18T05:44:30.627Z,21.63
2023-04-18T05:46:57.197Z,22.13
2023-04-18T05:49:23.691Z,20.48
2023-04-18T05:51:50.600Z,19.47
2023-04-18T05:54:17.359Z,19.40
2023-04-18T05:56:44.162Z,19.10
2023-04-18T05:59:11.188Z,17.92
2023-04-18T06:01:37.735Z,19.35
2023-04-18T06:04:04.544Z,18.90
2023-04-18T06:06:31.472Z,18.55
2023-04-18T06:08:58.045Z,19.67
2023-04-18T06:11:24.608Z,17.67
2023-04-18T06:13:51.241Z,17.60
2023-04-18T06:16:18.064Z,19.92
2023-04-18T06:18:44.574Z,18.10
2023-04-18T06:21:11.153Z,17.00
2023-04-18T06:23:38.474Z,17.52
2023-04-18T06:26:06.025Z,17.90
2023-04-18T06:28:32.930Z,18.52
2023-04-18T06:30:59.465Z,20.00
2023-04-18T06:33:26.104Z,19.75
2023-04-18T06:35:52.711Z,18.95
2023-04-18T06:38:19.459Z,16.95
2023-04-18T06:40:46.063Z,18.98
2023-04-18T06:43:12.572Z,15.98
2023-04-18T06:45:39.196Z,18.38
2023-04-18T06:48:06.280Z,16.58
2023-04-18T06:50:32.845Z,16.13
2023-04-18T06:52:59.395Z,17.35
2023-04-18T06:55:26.448Z,16.67
2023-04-18T06:57:53.100Z,17.33
2023-04-18T07:00:20.137Z,17.67
2023-04-18T07:02:47.196Z,17.13
2023-04-18T07:05:14.033Z,16.53
2023-04-18T07:07:40.600Z,17.27
2023-04-18T07:10:09.508Z,17.02
2023-04-18T07:12:36.395Z,17.15
2023-04-18T07:15:04.551Z,13.57
2023-04-18T07:17:31.789Z,13.88
2023-04-18T07:19:58.644Z,13.88
2023-04-18T07:22:25.419Z,12.65
2023-04-18T07:24:51.954Z,13.13
2023-04-18T07:27:18.516Z,15.00
2023-04-18T07:29:45.174Z,12.43
2023-04-18T07:32:11.776Z,12.18
2023-04-18T07:34:40.205Z,13.07
2023-04-18T07:37:07.020Z,11.98
2023-04-18T07:39:36.091Z,13.73
2023-04-18T07:42:04.296Z,12.88
2023-04-18T07:44:30.853Z,13.43
2023-04-18T07:46:57.512Z,11.20
2023-04-18T07:49:24.040Z,11.63
2023-04-18T07:51:50.549Z,12.38
2023-04-18T07:54:17.992Z,13.48
2023-04-18T07:56:44.642Z,11.82
2023-04-18T07:59:11.438Z,13.18
2023-04-18T08:01:38.089Z,12.15
2023-04-18T08:04:04.906Z,12.27
2023-04-18T08:06:31.716Z,13.30
2023-04-18T08:08:58.975Z,13.15
2023-04-18T08:11:25.652Z,13.00
2023-04-18T08:13:52.169Z,13.40
2023-04-18T08:16:18.789Z,14.18
2023-04-18T08:18:45.541Z,12.85
2023-04-18T08:21:12.645Z,14.15
2023-04-18T08:23:39.382Z,13.80
2023-04-18T08:26:05.951Z,13.68
2023-04-18T08:28:32.568Z,13.13
2023-04-18T08:30:59.256Z,13.63
2023-04-18T08:33:26.321Z,12.90
2023-04-18T08:35:52.973Z,13.98
2023-04-18T08:38:19.931Z,13.85
2023-04-18T08:40:47.288Z,13.75
2023-04-18T08:43:15.150Z,14.32
2023-04-18T08:45:43.284Z,12.48
2023-04-18T08:48:14.413Z,13.95
2023-04-18T08:50:41.842Z,12.38
2023-04-18T08:53:10.179Z,13.02
2023-04-18T08:55:37.301Z,13.38
2023-04-18T08:58:06.659Z,17.95
2023-04-18T09:00:33.358Z,13.30
2023-04-18T09:03:00.083Z,13.63
2023-04-18T09:05:27.490Z,13.85
2023-04-18T09:07:55.180Z,14.05
2023-04-18T09:10:34.069Z,15.32
2023-04-18T09:13:03.057Z,13.55
2023-04-18T09:15:30.315Z,14.40
2023-04-18T09:17:59.832Z,14.82
2023-04-18T09:20:35.805Z,14.82
2023-04-18T09:23:05.220Z,14.25
2023-04-18T09:25:43.315Z,12.60
2023-04-18T09:28:30.434Z,13.90
2023-04-18T09:31:16.090Z,14.65
2023-04-18T09:33:54.021Z,15.20
2023-04-18T09:36:22.254Z,13.90
2023-04-18T09:38:53.852Z,14.57
2023-04-18T09:41:23.131Z,13.70
2023-04-18T09:43:49.714Z,13.85
2023-04-18T09:46:17.601Z,15.50
2023-04-18T09:48:44.512Z,15.38
2023-04-18T09:51:15.658Z,17.13
2023-04-18T09:53:44.827Z,15.30
2023-04-18T09:56:28.099Z,15.68
2023-04-18T09:59:08.460Z,11.98
2023-04-18T10:01:35.802Z,15.57
2023-04-18T10:04:04.344Z,12.27
2023-04-18T10:06:33.888Z,13.82
2023-04-18T10:09:04.015Z,12.68
2023-04-18T10:11:32.112Z,14.40
2023-04-18T10:14:04.255Z,11.70
2023-04-18T10:16:34.083Z,12.82
2023-04-18T10:19:27.017Z,15.32
2023-04-18T10:22:01.416Z,12.43
2023-04-18T10:24:52.939Z,13.75
2023-04-18T10:27:48.946Z,13.23
2023-04-18T10:30:16.793Z,14.13
2023-04-18T10:32:45.405Z,14.48
2023-04-18T10:35:12.864Z,13.40
2023-04-18T10:37:52.171Z,14.95
2023-04-18T10:40:33.868Z,14.00
2023-04-18T10:43:01.047Z,12.32
2023-04-18T10:45:29.657Z,12.68
2023-04-18T10:48:29.227Z,13.85
2023-04-18T10:51:18.518Z,11.80
2023-04-18T10:53:57.524Z,13.10
2023-04-18T10:56:26.063Z,12.68
2023-04-18T10:58:53.568Z,14.25
2023-04-18T11:01:32.599Z,13.68
2023-04-18T11:04:01.175Z,14.38
2023-04-18T11:06:28.457Z,12.82
2023-04-18T11:09:14.217Z,12.55
2023-04-18T11:11:41.697Z,12.68
2023-04-18T11:14:08.709Z,15.68
2023-04-18T11:16:35.633Z,13.90
2023-04-18T11:19:19.496Z,14.10
2023-04-18T11:21:46.182Z,15.90
2023-04-18T11:24:21.566Z,11.85
2023-04-18T11:26:48.070Z,13.20
2023-04-18T11:29:17.481Z,13.43
2023-04-18T11:31:51.286Z,12.98
2023-04-18T11:34:17.912Z,12.13
2023-04-18T11:36:48.656Z,12.57
2023-04-18T11:39:15.232Z,14.10
2023-04-18T11:41:44.486Z,15.27
2023-04-18T11:44:11.263Z,14.20
2023-04-18T11:46:41.939Z,15.60
2023-04-18T11:49:32.992Z,14.55
2023-04-18T11:52:01.087Z,13.30
2023-04-18T11:54:41.598Z,14.38
2023-04-18T11:57:20.887Z,14.05
2023-04-18T11:59:58.114Z,12.75
2023-04-18T12:02:27.649Z,12.65
2023-04-18T12:04:59.779Z,12.85
2023-04-18T12:07:45.778Z,14.90
2023-04-18T12:10:29.618Z,17.80
2023-04-18T12:12:58.851Z,14.43
2023-04-18T12:15:28.097Z,15.00
2023-04-18T12:18:00.412Z,14.57
2023-04-18T12:20:51.470Z,13.60
2023-04-18T12:23:35.560Z,14.95
2023-04-18T12:26:03.940Z,14.07
2023-04-18T12:28:31.295Z,14.00
2023-04-18T12:30:58.744Z,13.68
2023-04-18T12:33:26.127Z,14.95
2023-04-18T12:35:53.228Z,12.55
2023-04-18T12:38:26.120Z,14.35
2023-04-18T12:40:52.848Z,13.23
2023-04-18T12:43:20.104Z,15.35
2023-04-18T12:45:46.964Z,14.75
2023-04-18T12:48:13.760Z,13.32
2023-04-18T12:50:40.417Z,14.65
2023-04-18T12:53:06.978Z,15.55
2023-04-18T12:55:33.712Z,15.00
2023-04-18T12:58:00.628Z,15.02
2023-04-18T13:00:30.382Z,13.98
2023-04-18T13:02:57.752Z,17.30
2023-04-18T13:05:27.659Z,15.40
2023-04-18T13:08:08.681Z,15.90
2023-04-18T13:10:41.858Z,14.07
2023-04-18T13:13:08.381Z,14.43
2023-04-18T13:15:34.952Z,14.27
2023-04-18T13:18:05.105Z,15.00
2023-04-18T13:20:32.620Z,14.50
2023-04-18T13:22:59.238Z,13.55
2023-04-18T13:25:28.294Z,13.75
2023-04-18T13:27:56.237Z,13.23
2023-04-18T13:30:22.928Z,12.90
2023-04-18T13:32:49.480Z,14.52
2023-04-18T13:35:16.125Z,13.93
2023-04-18T13:37:42.884Z,15.85
2023-04-18T13:40:09.987Z,14.23
2023-04-18T13:42:38.412Z,13.10
2023-04-18T13:45:05.521Z,12.77
2023-04-18T13:47:32.403Z,13.38
2023-04-18T13:49:59.331Z,14.60
2023-04-18T13:52:26.129Z,13.30
2023-04-18T13:54:52.886Z,13.70
2023-04-18T13:57:19.549Z,13.05
2023-04-18T13:59:46.101Z,13.68
2023-04-18T14:02:12.816Z,12.93
2023-04-18T14:04:39.660Z,14.75
2023-04-18T14:07:06.395Z,12.63
2023-04-18T14:09:33.619Z,12.55
2023-04-18T14:12:00.188Z,12.50
2023-04-18T14:14:26.824Z,12.60
2023-04-18T14:16:54.011Z,14.10
2023-04-18T14:19:20.629Z,15.20
2023-04-18T14:21:48.084Z,14.60
2023-04-18T14:24:14.791Z,16.05
2023-04-18T14:26:41.563Z,13.32
2023-04-18T14:29:08.086Z,11.85
2023-04-18T14:31:34.669Z,13.07
2023-04-18T14:34:01.241Z,13.45
2023-04-18T14:36:27.794Z,13.55
2023-04-18T14:38:55.024Z,12.68
2023-04-18T14:41:21.573Z,11.32
2023-04-18T14:43:48.342Z,11.60
2023-04-18T14:46:18.369Z,13.05
2023-04-18T14:48:48.269Z,10.98
2023-04-18T14:51:16.387Z,10.32
2023-04-18T14:53:43.245Z,11.23
2023-04-18T14:56:09.803Z,12.90
2023-04-18T14:58:36.741Z,12.07
2023-04-18T15:01:04.333Z,11.57
2023-04-18T15:03:31.321Z,10.95
2023-04-18T15:05:58.046Z,12.23
2023-04-18T15:08:24.812Z,10.05
2023-04-18T15:10:51.350Z,9.43
2023-04-18T15:13:17.952Z,11.88
2023-04-18T15:15:51.468Z,10.35
2023-04-18T15:18:17.975Z,8.98
2023-04-18T15:20:44.664Z,9.45
2023-04-18T15:23:13.571Z,10.32
2023-04-18T15:25:41.290Z,11.25
2023-04-18T15:28:09.075Z,9.35
2023-04-18T15:30:35.831Z,9.30
2023-04-18T15:33:02.637Z,9.38
2023-04-18T15:35:29.489Z,9.52
2023-04-18T15:37:57.335Z,9.27
2023-04-18T15:40:24.044Z,8.77
2023-04-18T15:42:53.382Z,8.20
2023-04-18T15:45:20.889Z,7.80
2023-04-18T15:47:47.664Z,8.70
2023-04-18T15:50:15.848Z,8.15
2023-04-18T15:52:42.651Z,8.25
2023-04-18T15:55:12.192Z,8.15
2023-04-18T15:57:39.429Z,8.25
2023-04-18T16:00:11.867Z,7.70
2023-04-18T16:02:39.188Z,8.30
2023-04-18T16:05:07.317Z,7.75
2023-04-18T16:07:34.009Z,7.00
2023-04-18T16:10:02.839Z,8.15
2023-04-18T16:12:29.558Z,7.90
2023-04-18T16:14:56.138Z,6.90
2023-04-18T16:17:22.936Z,7.75
2023-04-18T16:19:49.436Z,7.03
2023-04-18T16:22:16.044Z,7.00
2023-04-18T16:24:42.585Z,7.05
2023-04-18T16:27:09.246Z,7.70
2023-04-18T16:29:36.044Z,7.07
2023-04-18T16:32:02.627Z,6.40
2023-04-18T16:34:29.269Z,7.07
2023-04-18T16:36:55.835Z,7.20
2023-04-18T16:39:22.442Z,7.93
2023-04-18T16:41:49.084Z,7.00
2023-04-18T16:44:15.990Z,9.68
2023-04-18T16:46:42.809Z,8.05
2023-04-18T16:49:09.411Z,8.02
2023-04-18T16:51:37.160Z,7.47
2023-04-18T16:54:04.829Z,8.25
2023-04-18T16:56:32.003Z,8.63
2023-04-18T16:58:58.744Z,8.70
2023-04-18T17:01:25.547Z,10.00
2023-04-18T17:03:52.306Z,11.93
2023-04-18T17:06:19.336Z,7.80
2023-04-18T17:08:46.072Z,8.13
2023-04-18T17:11:12.646Z,9.30
2023-04-18T17:13:39.154Z,8.85
2023-04-18T17:16:06.854Z,8.45
2023-04-18T17:18:33.632Z,9.00
2023-04-18T17:21:00.151Z,8.93
2023-04-18T17:23:26.818Z,9.98
2023-04-18T17:25:53.412Z,9.18
2023-04-18T17:28:21.168Z,10.07
2023-04-18T17:30:47.762Z,9.63
2023-04-18T17:33:14.282Z,9.88
2023-04-18T17:35:41.509Z,10.70
2023-04-18T17:38:10.339Z,9.85
2023-04-18T17:40:36.874Z,8.98
2023-04-18T17:43:03.492Z,9.75
2023-04-18T17:45:30.162Z,7.88
2023-04-18T17:47:58.195Z,10.15
2023-04-18T17:50:25.028Z,8.73
2023-04-18T17:52:51.580Z,8.88
2023-04-18T17:55:18.391Z,9.43
2023-04-18T17:57:45.186Z,9.77
2023-04-18T18:00:13.650Z,8.95
2023-04-18T18:02:42.238Z,9.88
2023-04-18T18:05:14.918Z,10.30
2023-04-18T18:07:45.747Z,9.00
2023-04-18T18:10:18.930Z,9.25
2023-04-18T18:12:46.148Z,7.65
2023-04-18T18:15:12.818Z,9.20
2023-04-18T18:17:39.490Z,10.10
2023-04-18T18:20:10.430Z,10.30
2023-04-18T18:22:37.130Z,9.20
2023-04-18T18:25:05.273Z,9.07
2023-04-18T18:27:31.853Z,9.00
2023-04-18T18:29:58.440Z,8.88
2023-04-18T18:32:26.843Z,10.40
2023-04-18T18:34:53.497Z,9.73
2023-04-18T18:37:20.049Z,7.88
2023-04-18T18:39:46.832Z,8.88
2023-04-18T18:42:13.414Z,10.85
2023-04-18T18:44:40.065Z,9.77
2023-04-18T18:47:06.756Z,9.15
2023-04-18T18:49:33.344Z,8.32
2023-04-18T18:51:59.858Z,9.77
2023-04-18T18:54:26.779Z,8.70
2023-04-18T18:56:53.471Z,9.20
2023-04-18T18:59:20.069Z,9.20
2023-04-18T19:01:46.887Z,8.63
2023-04-18T19:04:13.812Z,9.82
2023-04-18T19:06:41.809Z,8.43
2023-04-18T19:09:08.404Z,10.00
2023-04-18T19:11:34.984Z,13.27
2023-04-18T19:14:01.771Z,10.63
2023-04-18T19:16:30.093Z,10.75
2023-04-18T19:18:56.802Z,10.77
2023-04-18T19:21:23.373Z,10.63
2023-04-18T19:23:49.943Z,10.05
2023-04-18T19:26:16.588Z,9.23
2023-04-18T19:28:43.151Z,10.82
2023-04-18T19:31:09.728Z,9.37
2023-04-18T19:33:36.317Z,10.75
2023-04-18T19:36:03.213Z,10.02
2023-04-18T19:38:29.735Z,11.23
2023-04-18T19:40:56.365Z,9.38
2023-04-18T19:43:22.872Z,8.98
2023-04-18T19:45:50.732Z,10.80
2023-04-18T19:48:17.533Z,10.68
2023-04-18T19:50:44.568Z,10.40
2023-04-18T19:53:11.223Z,10.30
2023-04-18T19:55:38.278Z,9.75
2023-04-18T19:58:05.740Z,10.13
2023-04-18T20:00:33.959Z,10.10
2023-04-18T20:03:00.818Z,11.10
2023-04-18T20:05:27.571Z,9.32
2023-04-18T20:07:54.167Z,10.53
2023-04-18T20:10:22.138Z,9.73
2023-04-18T20:12:50.054Z,10.35
2023-04-18T20:15:16.889Z,12.77
2023-04-18T20:17:43.642Z,10.55
2023-04-18T20:20:11.275Z,10.68
2023-04-18T20:22:40.189Z,10.50
2023-04-18T20:25:07.081Z,12.63
2023-04-18T20:27:33.734Z,11.15
2023-04-18T20:30:00.380Z,9.85
2023-04-18T20:32:27.100Z,12.87
2023-04-18T20:34:53.951Z,11.88
2023-04-18T20:37:20.590Z,11.27
2023-04-18T20:39:50.311Z,11.27
2023-04-18T20:42:17.397Z,11.70
2023-04-18T20:44:46.818Z,10.60
2023-04-18T20:47:15.505Z,13.23
2023-04-18T20:49:42.630Z,13.48
2023-04-18T20:52:09.622Z,10.77
2023-04-18T20:54:36.444Z,12.10
2023-04-18T20:57:03.168Z,11.18
2023-04-18T20:59:29.851Z,11.88
2023-04-18T21:01:57.769Z,11.45
2023-04-18T21:04:25.087Z,10.73
2023-04-18T21:06:51.930Z,12.77
2023-04-18T21:09:18.544Z,14.67
2023-04-18T21:11:45.174Z,13.05
2023-04-18T21:14:11.844Z,12.40
2023-04-18T21:16:39.710Z,10.77
2023-04-18T21:19:06.813Z,14.40
2023-04-18T21:21:34.171Z,15.15
2023-04-18T21:24:01.904Z,12.23
2023-04-18T21:26:29.022Z,13.10
2023-04-18T21:29:04.704Z,13.10
2023-04-18T21:31:33.720Z,12.38
2023-04-18T21:34:02.521Z,13.47
2023-04-18T21:36:30.620Z,12.38
2023-04-18T21:38:59.422Z,11.73
2023-04-18T21:41:26.315Z,10.35
2023-04-18T21:43:53.513Z,12.57
2023-04-18T21:46:20.171Z,12.50
2023-04-18T21:48:47.477Z,13.55
2023-04-18T21:51:16.040Z,10.00
2023-04-18T21:53:43.036Z,11.65
2023-04-18T21:56:09.728Z,11.60
2023-04-18T21:58:36.430Z,12.07
2023-04-18T22:01:03.280Z,10.95
2023-04-18T22:03:31.640Z,11.07
2023-04-18T22:05:58.850Z,11.18
2023-04-18T22:08:26.228Z,16.13
2023-04-18T22:10:58.226Z,11.53
2023-04-18T22:13:30.060Z,9.90
2023-04-18T22:15:58.151Z,10.02
2023-04-18T22:18:25.212Z,10.52
2023-04-18T22:20:53.699Z,11.02
2023-04-18T22:23:20.642Z,9.93
2023-04-18T22:25:47.661Z,11.90
2023-04-18T22:28:14.332Z,10.48
2023-04-18T22:30:40.889Z,9.90
2023-04-18T22:33:07.441Z,10.82
2023-04-18T22:35:34.061Z,9.73
2023-04-18T22:38:00.654Z,9.32
2023-04-18T22:40:27.315Z,8.85
2023-04-18T22:42:55.138Z,10.20
2023-04-18T22:45:21.774Z,10.00
2023-04-18T22:47:48.527Z,8.30
2023-04-18T22:50:15.208Z,10.57
2023-04-18T22:52:43.302Z,9.55
2023-04-18T22:55:10.264Z,9.90
2023-04-18T22:57:38.114Z,9.63
2023-04-18T23:00:06.620Z,9.43
2023-04-18T23:02:33.243Z,8.75
2023-04-18T23:05:02.282Z,8.93
2023-04-18T23:07:29.115Z,8.73
2023-04-18T23:09:55.649Z,8.95
2023-04-18T23:12:22.274Z,8.77
2023-04-18T23:14:48.934Z,8.27
2023-04-18T23:17:15.592Z,8.93
2023-04-18T23:19:44.886Z,9.23
2023-04-18T23:22:12.495Z,9.52
2023-04-18T23:24:38.991Z,9.10
2023-04-18T23:27:05.830Z,7.97
2023-04-18T23:29:37.740Z,9.60
2023-04-18T23:32:05.325Z,7.53
2023-04-18T23:34:32.065Z,9.18
2023-04-18T23:36:58.836Z,7.65
2023-04-18T23:39:26.527Z,8.13
2023-04-18T23:41:53.098Z,7.70
2023-04-18T23:44:19.609Z,11.25
2023-04-18T23:46:47.434Z,9.30
2023-04-18T23:49:14.925Z,7.55
2023-04-18T23:51:41.604Z,9.73
2023-04-18T23:54:08.191Z,7.47
2023-04-18T23:56:34.770Z,8.82
2023-04-18T23:59:01.466Z,8.38
